Nearby METAR Reports

 

KSNK - Snyder/Winston, Texas, USA
Distance from station: SSE 25mi, 41km
Updated: Wed, 23-Jan-2019 5:55pm CST
Clear
Clear
 Wind from S
Wind: S 9 mph , 15 km/h
Temperature: 48°F , 9°C
Wind Chill: 44°F , 7°C
Dew Point: 16°F , -9°C
Humidity: 27%
Barometer: 30.05 inHg , 1017.6 hPa
Clouds: Clear
Visibility: 10 miles , 16 km
2019/01/23 23:55 KSNK 232355Z AUTO 19008KT 10SM CLR 09/M09 A3005 RMK AO2 T00911091
KSWW - Sweetwater, Texas, USA
Distance from station: SE 56mi, 90km
Updated: Wed, 23-Jan-2019 5:55pm CST
Clear
Clear
 Wind from SSW
Wind: SSW 8 mph , 13 km/h
Temperature: 48°F , 9°C
Wind Chill: 44°F , 7°C
Dew Point: 14°F , -10°C
Humidity: 25%
Barometer: 30.08 inHg , 1018.6 hPa
Clouds: Clear
Visibility: 10 miles , 16 km
2019/01/23 23:55 KSWW 232355Z AUTO 21007KT 10SM CLR 09/M10 A3008 RMK AO2 T00861099 10102 20057
 
KLBB - Lubbock, Texas, USA
Distance from station: NW 59mi, 94km
Updated: Wed, 23-Jan-2019 5:53pm CST
Few Clouds
Few Clouds
 Wind from WSW
Wind: WSW 7 mph , 11 km/h
Temperature: 46°F , 8°C
Wind Chill: 42°F , 6°C
Dew Point: 14°F , -10°C
Humidity: 27%
Barometer: 29.98 inHg , 1015.2 hPa
Clouds: Few Clouds
Visibility: 10 miles , 16 km
Cloud details: Few Clouds 25000 ft
2019/01/23 23:53 KLBB 232353Z 24006KT 10SM FEW250 08/M10 A2998 RMK AO2 SLP156 T00831100 10111 20050 56016
KPVW - Plainview, Texas, USA
Distance from station: NNW 85mi, 137km
Updated: Wed, 23-Jan-2019 5:55pm CST
Clear
Clear
 Wind from calm
Wind: Calm
Temperature: 43°F , 6°C
Dew Point: 14°F , -10°C
Humidity: 31%
Barometer: 29.97 inHg , 1014.9 hPa
Clouds: Clear
Visibility: 10 miles , 16 km
2019/01/23 23:55 KPVW 232355Z AUTO 00000KT 10SM CLR 06/M10 A2997 RMK AO2 T00631105 10090 20043
 
KDYS - Dyess Afb/Abilen, Texas, USA
Distance from station: ESE 88mi, 141km
Updated: Wed, 23-Jan-2019 5:56pm CST
Clear
Clear
 Wind from WSW
Wind: WSW 5 mph , 7 km/h
Temperature: 48°F , 9°C
Wind Chill: 46°F , 8°C
Dew Point: 14°F , -10°C
Humidity: 25%
Barometer: 30.07 inHg , 1018.3 hPa
Clouds: Clear
Visibility: 10 miles , 16 km
2019/01/23 23:56 KDYS 232356Z AUTO 25004KT 10SM CLR 09/M10 A3007 RMK AO2 SLP192 T00891096 10106 20061 57011 $
KGNC - Seminole, Texas, USA
Distance from station: WSW 89mi, 144km
Updated: Wed, 23-Jan-2019 5:55pm CST
Clear
Clear
 Wind from WSW
Wind: WSW 7 mph , 11 km/h
Temperature: 48°F , 9°C
Wind Chill: 45°F , 7°C
Dew Point: 12°F , -11°C
Humidity: 23%
Barometer: 30.07 inHg , 1018.3 hPa
Clouds: Clear
Visibility: 10 miles , 16 km
2019/01/23 23:55 KGNC 232355Z AUTO 25006KT 10SM CLR 09/M11 A3007 RMK AO2 T00901112 10110 20064
 
KE11 - Andrews, Texas, USA
Distance from station: WSW 93mi, 149km
Updated: Wed, 23-Jan-2019 5:55pm CST
Clear
Clear
 Wind from W
Wind: W 8 mph , 13 km/h
Temperature: 50°F , 10°C
Wind Chill: 47°F , 8°C
Dew Point: 12°F , -11°C
Humidity: 22%
Barometer: 30.04 inHg , 1017.3 hPa
Clouds: Clear
Visibility: 10 miles , 16 km
2019/01/23 23:55 KE11 232355Z AUTO 27007KT 10SM CLR 10/M11 A3004 RMK AO2 T01031115 10116 20070
KABI - Abilene, Texas, USA
Distance from station: ESE 96mi, 154km
Updated: Wed, 23-Jan-2019 5:52pm CST
Clear
Clear
 Wind from W
Wind: W 7 mph , 11 km/h
Temperature: 48°F , 9°C
Wind Chill: 45°F , 7°C
Dew Point: 16°F , -9°C
Humidity: 27%
Barometer: 30.08 inHg , 1018.6 hPa
Clouds: Clear
Visibility: 10 miles , 16 km
2019/01/23 23:52 KABI 232352Z 26006KT 10SM CLR 09/M09 A3008 RMK AO2 SLP190 T00891089 10111 20072 56010
 
KMAF - Midland, Texas, USA
Distance from station: SW 96mi, 154km
Updated: Wed, 23-Jan-2019 5:53pm CST
Clear
Clear
 Wind from SW
Wind: SW 9 mph , 15 km/h
Temperature: 52°F , 11°C
Dew Point: 18°F , -8°C
Humidity: 26%
Barometer: 30.04 inHg , 1017.3 hPa
Clouds: Clear
Visibility: 10 miles , 16 km
2019/01/23 23:53 KMAF 232353Z 23008KT 10SM CLR 11/M08 A3004 RMK AO2 SLP170 T01061083 10122 20067 58019
KCDS - Childress, Texas, USA
Distance from station: NNE 110mi, 177km
Updated: Wed, 23-Jan-2019 5:53pm CST
Clear
Clear
 Wind from WSW
Wind: WSW 7 mph , 11 km/h
Temperature: 46°F , 8°C
Wind Chill: 42°F , 6°C
Dew Point: 14°F , -10°C
Humidity: 27%
Barometer: 30.00 inHg , 1015.9 hPa
Clouds: Clear
Visibility: 10 miles , 16 km
2019/01/23 23:53 KCDS 232353Z AUTO 25006KT 10SM CLR 08/M10 A3000 RMK AO2 SLP168 T00831100 10117 20067 56015
 
KSJT - San Angelo, Texas, USA
Distance from station: SSE 121mi, 194km
Updated: Wed, 23-Jan-2019 5:51pm CST
Clear
Clear
 Wind from W
Wind: W 7 mph , 11 km/h
Temperature: 52°F , 11°C
Dew Point: 21°F , -6°C
Humidity: 30%
Barometer: 30.09 inHg , 1019 hPa
Clouds: Clear
Visibility: 10 miles , 16 km
2019/01/23 23:51 KSJT 232351Z 28006KT 10SM CLR 11/M06 A3009 RMK AO2 SLP194 T01061056 10122 20083 56014
KHOB - Hobbs/Lea Co., New Mexico, USA
Distance from station: WSW 122mi, 196km
Updated: Wed, 23-Jan-2019 5:50pm CST
Clear
Clear
 Wind from WSW
Wind: WSW 9 mph , 15 km/h
Temperature: 48°F , 9°C
Wind Chill: 44°F , 7°C
Dew Point: 7°F , -14°C
Humidity: 18%
Barometer: 30.03 inHg , 1016.9 hPa
Clouds: Clear
Visibility: 10 miles , 16 km
2019/01/23 23:50 KHOB 232350Z 25008KT 10SM CLR 09/M14 A3003
 
KCOM - Coleman Muni, Texas, USA
Distance from station: SE 131mi, 212km
Updated: Wed, 23-Jan-2019 5:55pm CST
Clear
Clear
 Wind from W
Wind: W 7 mph , 11 km/h
Temperature: 48°F , 9°C
Wind Chill: 45°F , 7°C
Dew Point: 18°F , -8°C
Humidity: 29%
Barometer: 30.10 inHg , 1019.3 hPa
Clouds: Clear
Visibility: 10 miles , 16 km
2019/01/23 23:55 KCOM 232355Z AUTO 26006KT 10SM CLR 09/M08 A3010 RMK AO2 T00931082 10115 20076
KBKD - Breckenridge, Texas, USA
Distance from station: E 134mi, 215km
Updated: Wed, 23-Jan-2019 5:55pm CST
Clear
Clear
 Wind from calm
Wind: Calm
Temperature: 48°F , 9°C
Dew Point: 18°F , -8°C
Humidity: 29%
Barometer: 30.09 inHg , 1019 hPa
Clouds: Clear
Visibility: 10 miles , 16 km
2019/01/23 23:55 KBKD 232355Z AUTO 00000KT 10SM CLR 09/M08 A3009 RMK AO2 T00861082 10108 20063
 
KF05 - Vernon Wilbarger, Texas, USA
Distance from station: NE 137mi, 220km
Updated: Wed, 23-Jan-2019 5:55pm CST
Clear
Clear
 Wind from SSE
Wind: SSE 5 mph , 7 km/h
Temperature: 50°F , 10°C
Wind Chill: 48°F , 9°C
Dew Point: 18°F , -8°C
Humidity: 28%
Barometer: 30.04 inHg , 1017.3 hPa
Clouds: Clear
Visibility: 10 miles , 16 km
2019/01/23 23:55 KF05 232355Z AUTO 16004KT 10SM CLR 10/M08 A3004 RMK AO1 T00951083 10154 21045